Latest Weather Observations for Hopetoun Airport

IDV60801

Issued at 12:31 pm EST Friday 3 July 2015 (issued every 30 minutes, with the page automatically refreshed every 10 minutes)

About weather observations | Map of weather stations | Latest weather observations for VIC | Other Formats
Station Details ID: 077010 Name: HOPETOUN AIRPORT Lat: -35.72 Lon: 142.36 Height: 77.3 m
Data from the previous 72 hours. | See also: Recent months at Hopetoun Airport
Date/Time
EST
Temp
°C
App
Temp
°C
Dew
Point
Rel
Hum
%
Delta-T
°C
Wind Press
QNH
hPa
Press
MSL
hPa
Rain
since 9 am
mm
Dir
 
Spd
km/h
Gust
km/h
Spd
kts
Gust
kts
03/12:30pm 11.0 7.8 1.0 50 4.1 NNW 7 17 4 9 1029.1 1029.3 0.0
03/12:00pm 10.4 7.7 2.5 58 3.4 N 6 9 3 5 1029.5 1029.7 0.0
03/11:30am 9.7 7.5 3.2 64 2.8 N 4 7 2 4 1030.0 1030.1 0.0
03/11:00am 8.4 6.5 2.8 68 2.4 NNW 2 4 1 2 1030.1 1030.2 0.0
03/10:30am 7.2 5.6 2.5 72 2.0 CALM 0 0 0 0 1030.2 1030.3 0.0
03/10:00am 5.3 3.5 1.4 76 1.5 CALM 0 0 0 0 1030.0 1030.1 0.0
03/09:30am 3.3 1.4 0.7 83 1.0 CALM 0 0 0 0 1030.1 1030.2 0.0
03/09:00am 0.8 -1.3 -0.8 89 0.6 CALM 0 0 0 0 1030.2 1030.3 0.0
03/08:30am -1.3 -3.6 -2.6 91 0.4 CALM 0 0 0 0 1030.1 1030.2 0.0
03/08:00am -2.2 -5.4 -3.5 91 0.3 SW 4 4 2 2 1030.1 1030.2 0.0
03/07:30am -2.3 -5.5 -3.6 91 0.3 SW 4 6 2 3 1030.1 1030.2 0.0
03/07:00am -2.8 -5.7 -4.1 91 0.3 S 2 6 1 3 1029.9 1030.0 0.0
03/06:30am -2.8 -5.3 -4.2 90 0.3 CALM 0 0 0 0 1029.5 1029.7 0.0
03/06:00am -2.6 -5.1 -4.0 90 0.3 CALM 0 6 0 3 1029.1 1029.3 0.0
03/05:30am -2.5 -5.0 -3.9 90 0.3 CALM 0 0 0 0 1029.1 1029.3 0.0
03/05:00am -2.1 -4.5 -3.5 90 0.4 CALM 0 0 0 0 1029.3 1029.5 0.0
03/04:30am -2.1 -4.6 -3.7 89 0.4 CALM 0 2 0 1 1029.4 1029.6 0.0
03/04:00am -1.8 -4.6 -3.5 88 0.5 SSW 2 4 1 2 1029.3 1029.5 0.0
03/03:30am -1.3 -4.1 -3.2 87 0.6 SSE 2 4 1 2 1029.4 1029.6 0.0
03/03:00am -0.1 -3.1 -1.7 89 0.5 SSW 4 6 2 3 1029.4 1029.6 0.0
03/02:30am -0.3 -2.6 -2.0 88 0.6 CALM 0 0 0 0 1029.7 1029.8 0.0
03/02:00am -0.4 -2.7 -2.1 88 0.6 CALM 0 0 0 0 1029.9 1030.0 0.0
03/01:30am -0.5 -2.8 -2.5 86 0.7 CALM 0 0 0 0 1029.8 1029.9 0.0
03/01:00am 0.5 -2.2 -2.2 82 0.9 S 2 4 1 2 1029.8 1029.9 0.0
03/12:30am 1.7 -0.8 -1.0 82 1.0 S 2 4 1 2 1029.9 1030.0 0.0
03/12:00am 2.0 -1.3 -1.4 78 1.2 SSW 6 7 3 4 1030.0 1030.1 0.0
 
Date/Time
EST
Temp
°C
App
Temp
°C
Dew
Point
Rel
Hum
%
Delta-T
°C
Wind Press
QNH
hPa
Press
MSL
hPa
Rain
since 9 am
mm
Dir
 
Spd
km/h
Gust
km/h
Spd
kts
Gust
kts
02/11:30pm 3.8 0.0 -0.8 72 1.7 SE 9 11 5 6 1029.8 1029.9 0.0
02/11:00pm 4.9 0.4 -0.5 68 2.0 SE 13 15 7 8 1029.7 1029.8 0.0
02/10:30pm 5.6 0.7 -0.2 66 2.2 SSE 15 19 8 10 1029.7 1029.8 0.0
02/10:00pm 6.2 1.4 0.1 65 2.3 SSE 15 17 8 9 1030.0 1030.1 0.0
02/09:30pm 6.2 1.8 0.3 66 2.3 SSE 13 15 7 8 1030.0 1030.1 0.0
02/09:00pm 6.3 2.6 0.0 64 2.4 SSE 9 11 5 6 1030.0 1030.1 0.0
02/08:30pm 7.3 3.6 0.1 60 2.8 S 9 13 5 7 1029.8 1029.9 0.0
02/08:00pm 7.6 3.9 0.1 59 2.9 S 9 13 5 7 1029.5 1029.7 0.0
02/07:30pm 8.0 4.5 1.0 61 2.8 S 9 11 5 6 1029.1 1029.3 0.0
02/07:00pm 8.1 4.6 1.3 62 2.7 SSW 9 11 5 6 1029.0 1029.2 0.0
02/06:30pm 10.5 6.3 1.9 55 3.6 SSE 13 20 7 11 1028.6 1028.8 0.0
02/06:00pm 10.8 6.9 1.4 52 3.9 S 11 17 6 9 1028.3 1028.5 0.0
02/05:30pm 11.2 6.5 0.6 48 4.4 S 15 20 8 11 1028.1 1028.3 0.0
02/05:00pm 11.7 7.2 1.9 51 4.2 S 15 20 8 11 1028.0 1028.2 0.0
02/04:30pm 11.9 6.6 2.9 54 4.0 S 20 26 11 14 1027.8 1028.0 0.0
02/04:00pm 12.6 7.3 1.6 47 4.7 SSW 19 26 10 14 1027.7 1027.9 0.0
02/03:30pm 12.5 6.8 2.9 52 4.2 S 22 30 12 16 1027.5 1027.7 0.0
02/03:00pm 12.9 7.6 3.0 51 4.4 S 20 30 11 16 1027.2 1027.4 0.0
02/02:30pm 13.2 7.0 2.1 47 4.8 SSW 24 33 13 18 1026.8 1027.0 0.0
02/02:00pm 13.6 6.8 3.1 49 4.7 SW 28 39 15 21 1026.6 1026.8 0.0
02/01:30pm 14.0 8.0 3.2 48 4.9 SSW 24 35 13 19 1026.5 1026.7 0.0
02/01:00pm 13.9 6.2 3.4 49 4.7 SW 33 44 18 24 1026.5 1026.7 0.0
02/12:30pm 12.9 6.7 4.1 55 4.0 SSW 26 37 14 20 1026.5 1026.7 0.0
02/12:00pm 13.2 5.9 4.6 56 3.9 SW 32 43 17 23 1026.6 1026.8 0.0
02/11:30am 13.4 5.6 4.8 56 4.0 SW 35 46 19 25 1026.7 1026.9 0.0
02/11:00am 13.1 7.2 5.8 61 3.4 SW 26 35 14 19 1026.6 1026.8 0.0
02/10:30am 12.3 5.7 5.9 65 3.0 SW 30 39 16 21 1026.6 1026.8 0.0
02/10:00am 11.6 6.8 7.5 76 2.0 SW 22 30 12 16 1026.3 1026.5 0.0
02/09:30am 10.8 6.9 8.7 87 1.0 WSW 19 22 10 12 1026.1 1026.3 0.0
02/09:00am 9.8 6.2 8.2 90 0.8 W 17 20 9 11 1025.7 1025.9 0.0
02/08:30am 9.1 5.4 8.0 93 0.5 WSW 17 24 9 13 1025.7 1025.9 0.0
02/08:00am 7.7 4.1 6.6 93 0.5 W 15 17 8 9 1025.4 1025.6 0.0
02/07:30am 7.8 4.4 5.9 88 0.9 W 13 17 7 9 1025.1 1025.3 0.0
02/07:00am 8.2 3.6 5.8 85 1.1 WSW 19 22 10 12 1024.6 1024.8 0.0
02/06:30am 8.0 2.8 5.3 83 1.2 W 22 28 12 15 1024.1 1024.3 0.0
02/06:00am 8.6 2.0 4.4 75 1.8 W 28 32 15 17 1023.4 1023.6 0.0
02/05:30am 8.9 3.1 4.3 73 2.0 WNW 24 30 13 16 1023.2 1023.4 0.0
02/05:00am 8.2 3.7 4.2 76 1.7 WNW 17 24 9 13 1023.2 1023.4 0.0
02/04:30am 6.4 2.5 3.6 82 1.2 NW 13 19 7 10 1023.4 1023.6 0.0
02/04:00am 6.0 0.9 3.0 81 1.2 NW 19 22 10 12 1023.5 1023.7 0.0
02/03:30am 5.6 0.8 2.8 82 1.2 NW 17 19 9 10 1023.9 1024.1 0.0
02/03:00am 6.0 1.6 2.8 80 1.3 NW 15 17 8 9 1024.3 1024.5 0.0
02/02:30am 6.5 1.8 3.1 79 1.4 NW 17 19 9 10 1024.4 1024.6 0.0
02/02:00am 6.8 2.5 3.2 78 1.5 NW 15 17 8 9 1024.5 1024.7 0.0
02/01:30am 6.7 2.7 3.1 78 1.5 NW 13 15 7 8 1024.6 1024.8 0.0
02/01:00am 7.0 3.1 3.3 77 1.6 NW 13 15 7 8 1024.9 1025.1 0.0
02/12:30am 6.9 3.0 3.3 78 1.5 NNW 13 13 7 7 1025.3 1025.5 0.0
02/12:00am 7.7 3.8 3.6 75 1.7 NNW 13 15 7 8 1025.6 1025.8 0.0
 
Date/Time
EST
Temp
°C
App
Temp
°C
Dew
Point
Rel
Hum
%
Delta-T
°C
Wind Press
QNH
hPa
Press
MSL
hPa
Rain
since 9 am
mm
Dir
 
Spd
km/h
Gust
km/h
Spd
kts
Gust
kts
01/11:30pm 8.1 4.7 3.9 75 1.8 NW 11 13 6 7 1025.9 1026.1 0.0
01/11:00pm 8.4 5.0 3.8 73 2.0 NW 11 13 6 7 1025.9 1026.1 0.0
01/10:30pm 8.7 5.3 3.9 72 2.1 NW 11 13 6 7 1026.0 1026.2 0.0
01/10:00pm 9.3 5.5 3.9 69 2.4 NW 13 15 7 8 1026.1 1026.3 0.0
01/09:30pm 9.9 5.8 4.1 67 2.6 NW 15 17 8 9 1026.0 1026.2 0.0
01/09:00pm 10.2 6.9 4.4 67 2.6 NW 11 15 6 8 1026.1 1026.3 0.0
01/08:30pm 9.8 6.8 4.2 68 2.5 NNW 9 9 5 5 1026.0 1026.2 0.0
01/08:00pm 9.8 6.7 3.8 66 2.6 NNW 9 11 5 6 1026.1 1026.3 0.0
01/07:30pm 10.0 6.2 4.0 66 2.7 NNW 13 13 7 7 1026.2 1026.4 0.0
01/07:00pm 10.1 6.8 4.3 67 2.6 NNW 11 13 6 7 1025.9 1026.1 0.0
01/06:30pm 10.4 7.0 3.9 64 2.9 NNW 11 13 6 7 1025.7 1025.9 0.0
01/06:00pm 11.0 7.6 4.2 63 3.0 NNW 11 13 6 7 1025.7 1025.9 0.0
01/05:30pm 10.7 7.6 3.7 62 3.1 NNW 9 11 5 6 1025.5 1025.7 0.0
01/05:00pm 13.0 9.2 3.9 54 4.1 NW 13 15 7 8 1025.4 1025.6 0.0
01/04:30pm 13.4 10.0 3.8 52 4.4 NW 11 15 6 8 1025.5 1025.7 0.0
01/04:00pm 13.5 8.8 3.0 49 4.7 NW 17 22 9 12 1025.9 1026.1 0.0
01/03:30pm 14.4 9.1 3.2 47 5.1 NW 20 30 11 16 1026.0 1026.2 0.0
01/03:00pm 14.5 9.3 2.7 45 5.2 WNW 19 28 10 15 1026.1 1026.3 0.0
01/02:30pm 13.8 8.4 2.4 46 5.0 WNW 20 39 11 21 1026.4 1026.6 0.0
01/02:00pm 14.3 9.0 3.2 47 5.0 NW 20 30 11 16 1026.7 1026.9 0.0
01/01:30pm 13.9 9.3 3.7 50 4.6 NW 17 28 9 15 1027.3 1027.5 0.0
01/01:00pm 13.4 8.9 4.0 53 4.3 NNW 17 22 9 12 1027.7 1027.9 0.0
01/12:30pm 12.6 8.2 4.6 58 3.7 NNW 17 22 9 12 1028.2 1028.4 0.0
01/12:00pm 11.8 7.4 4.5 61 3.3 NW 17 22 9 12 1029.1 1029.3 0.0
01/11:30am 11.1 7.8 4.3 63 3.1 NW 11 15 6 8 1029.4 1029.6 0.0
01/11:00am 10.4 7.4 4.1 65 2.8 NW 9 13 5 7 1029.8 1029.9 0.0
01/10:30am 9.3 6.3 4.3 71 2.2 NNW 9 13 5 7 1030.0 1030.1 0.0
01/10:00am 8.2 4.9 4.4 77 1.7 NNW 11 15 6 8 1030.2 1030.3 0.0
01/09:30am 6.9 4.0 4.4 84 1.1 NNW 9 11 5 6 1030.3 1030.4 0.0
01/09:00am 5.5 3.4 3.7 88 0.8 N 4 6 2 3 1030.4 1030.5 0.0
01/08:30am 4.7 3.2 3.0 89 0.7 CALM 0 4 0 2 1030.2 1030.3 0.0
01/08:00am 4.1 2.2 2.8 91 0.5 NNE 2 4 1 2 1030.0 1030.1 0.0
01/07:30am 3.8 1.1 2.8 93 0.4 N 6 7 3 4 1029.7 1029.8 0.0
01/07:00am 2.6 0.8 1.4 92 0.5 CALM 0 0 0 0 1029.5 1029.7 0.0
01/06:30am 2.5 -0.4 1.2 91 0.5 W 6 6 3 3 1029.3 1029.5 0.0
01/06:00am 2.9 -0.5 1.6 91 0.5 W 9 11 5 6 1029.2 1029.4 0.0
01/05:30am 3.2 0.3 1.6 89 0.6 W 6 7 3 4 1028.9 1029.1 0.0
01/05:00am 2.7 0.1 0.9 88 0.7 NNE 4 4 2 2 1028.7 1028.9 0.0
01/04:30am 4.1 1.7 2.3 88 0.7 NW 4 4 2 2 1028.7 1028.9 0.0
01/04:00am 5.0 2.7 2.9 86 0.9 WNW 4 6 2 3 1028.7 1028.9 0.0
01/03:30am 5.6 3.7 3.1 84 1.0 WNW 2 4 1 2 1028.9 1029.1 0.0
01/03:00am 7.3 5.1 3.5 77 1.6 SW 4 6 2 3 1029.0 1029.2 0.0
01/02:30am 8.0 5.5 3.8 75 1.8 SSW 6 6 3 3 1029.0 1029.2 0.0
01/02:00am 8.0 5.9 4.0 76 1.7 S 4 6 2 3 1029.2 1029.4 0.0
01/01:30am 8.1 6.0 4.1 76 1.7 SSW 4 6 2 3 1029.5 1029.7 0.0
01/01:00am 8.2 6.2 4.4 77 1.7 S 4 7 2 4 1029.7 1029.8 0.0
01/12:30am 8.3 7.0 4.3 76 1.8 CALM 0 2 0 1 1029.9 1030.0 0.0
01/12:00am 8.4 6.4 4.6 77 1.7 W 4 6 2 3 1030.1 1030.2 0.0
 
Date/Time
EST
Temp
°C
App
Temp
°C
Dew
Point
Rel
Hum
%
Delta-T
°C
Wind Press
QNH
hPa
Press
MSL
hPa
Rain
since 9 am
mm
Dir
 
Spd
km/h
Gust
km/h
Spd
kts
Gust
kts
30/11:30pm 8.4 6.4 4.4 76 1.8 W 4 6 2 3 1030.3 1030.4 0.0
30/11:00pm 8.5 7.2 4.3 75 1.8 CALM 0 2 0 1 1030.3 1030.4 0.0
30/10:30pm 8.7 6.7 4.5 75 1.9 W 4 6 2 3 1030.3 1030.4 0.0
30/10:00pm 8.9 6.5 4.3 73 2.0 W 6 7 3 4 1030.5 1030.6 0.0
30/09:30pm 9.2 6.8 4.4 72 2.1 WSW 6 9 3 5 1030.4 1030.5 0.0
30/09:00pm 9.0 7.5 4.8 75 1.9 WNW 2 11 1 6 1030.4 1030.5 0.0
30/08:30pm 8.8 7.5 4.0 72 2.1 CALM 0 0 0 0 1029.9 1030.0 0.0
30/08:00pm 9.4 7.6 3.6 67 2.5 SE 2 6 1 3 1029.7 1029.8 0.0
30/07:30pm 9.7 7.6 3.7 66 2.6 S 4 7 2 4 1029.4 1029.6 0.0
30/07:00pm 10.0 7.4 3.1 62 3.0 SSE 6 7 3 4 1029.4 1029.6 0.0
30/06:30pm 10.5 7.8 2.6 58 3.4 S 6 7 3 4 1029.3 1029.5 0.0
30/06:00pm 10.6 6.9 2.4 57 3.5 SSE 11 15 6 8 1029.2 1029.4 0.0
30/05:30pm 10.7 7.1 3.0 59 3.4 SSW 11 17 6 9 1029.2 1029.4 0.0
30/05:00pm 10.9 7.0 3.2 59 3.3 SW 13 17 7 9 1029.2 1029.4 0.0
30/04:30pm 11.1 6.6 2.4 55 3.7 SW 15 22 8 12 1028.8 1029.0 0.0
30/04:00pm 11.4 6.5 2.2 53 3.9 SSW 17 20 9 11 1028.6 1028.8 0.0
30/03:30pm 11.5 7.7 2.0 52 4.1 SSW 11 17 6 9 1028.6 1028.8 0.0
30/03:00pm 11.4 7.6 1.9 52 4.0 SSW 11 17 6 9 1028.4 1028.6 0.0
30/02:30pm 11.4 6.5 2.2 53 4.0 SW 17 20 9 11 1028.5 1028.7 0.0
30/02:00pm 10.9 6.7 1.4 52 4.0 SSW 13 20 7 11 1028.7 1028.9 0.0
30/01:30pm 11.0 6.8 1.8 53 3.9 SSW 13 20 7 11 1028.8 1029.0 0.0
30/01:00pm 11.3 7.1 3.8 60 3.3 SSW 15 20 8 11 1029.1 1029.3 0.0

Other Formats:

Comma delimited format used in spreadsheet applications
http://www.bom.gov.au/fwo/IDV60801/IDV60801.94838.axf

JavaScript Object Notation format (JSON) in row-major order
http://www.bom.gov.au/fwo/IDV60801/IDV60801.94838.json